sensor_id;sensor_type;location;lat;lon;timestamp;temperature;humidity
62581;DHT22;48640;48.770;9.148;2023-05-28T00:01:20;15.80;61.30
62581;DHT22;48640;48.770;9.148;2023-05-28T00:03:48;15.80;61.10
62581;DHT22;48640;48.770;9.148;2023-05-28T00:06:15;15.80;61.40
62581;DHT22;48640;48.770;9.148;2023-05-28T00:08:42;15.80;60.90
62581;DHT22;48640;48.770;9.148;2023-05-28T00:11:10;15.70;61.10
62581;DHT22;48640;48.770;9.148;2023-05-28T00:13:37;15.70;61.40
62581;DHT22;48640;48.770;9.148;2023-05-28T00:16:04;15.60;62.20
62581;DHT22;48640;48.770;9.148;2023-05-28T00:18:30;15.60;62.30
62581;DHT22;48640;48.770;9.148;2023-05-28T00:20:58;15.60;62.60
62581;DHT22;48640;48.770;9.148;2023-05-28T00:23:26;15.60;63.10
62581;DHT22;48640;48.770;9.148;2023-05-28T00:25:53;15.50;62.70
62581;DHT22;48640;48.770;9.148;2023-05-28T00:28:21;15.50;63.00
62581;DHT22;48640;48.770;9.148;2023-05-28T00:30:48;15.60;62.90
62581;DHT22;48640;48.770;9.148;2023-05-28T00:33:14;15.50;62.50
62581;DHT22;48640;48.770;9.148;2023-05-28T00:35:41;15.00;62.10
62581;DHT22;48640;48.770;9.148;2023-05-28T00:38:08;15.50;62.70
62581;DHT22;48640;48.770;9.148;2023-05-28T00:40:35;15.50;62.60
62581;DHT22;48640;48.770;9.148;2023-05-28T00:43:02;15.40;62.60
62581;DHT22;48640;48.770;9.148;2023-05-28T00:45:30;15.50;63.00
62581;DHT22;48640;48.770;9.148;2023-05-28T00:47:57;14.90;62.60
62581;DHT22;48640;48.770;9.148;2023-05-28T00:50:24;15.30;64.00
62581;DHT22;48640;48.770;9.148;2023-05-28T00:52:53;15.30;63.80
62581;DHT22;48640;48.770;9.148;2023-05-28T00:55:21;15.20;64.20
62581;DHT22;48640;48.770;9.148;2023-05-28T00:57:49;15.20;65.70
62581;DHT22;48640;48.770;9.148;2023-05-28T01:00:20;14.60;66.30
62581;DHT22;48640;48.770;9.148;2023-05-28T01:02:48;15.00;65.80
62581;DHT22;48640;48.770;9.148;2023-05-28T01:05:15;15.00;66.10
62581;DHT22;48640;48.770;9.148;2023-05-28T01:07:42;14.80;66.00
62581;DHT22;48640;48.770;9.148;2023-05-28T01:10:10;14.70;67.30
62581;DHT22;48640;48.770;9.148;2023-05-28T01:12:38;14.90;68.40
62581;DHT22;48640;48.770;9.148;2023-05-28T01:15:06;14.80;68.40
62581;DHT22;48640;48.770;9.148;2023-05-28T01:17:33;14.70;69.70
62581;DHT22;48640;48.770;9.148;2023-05-28T01:20:01;14.50;68.60
62581;DHT22;48640;48.770;9.148;2023-05-28T01:22:36;14.60;70.10
62581;DHT22;48640;48.770;9.148;2023-05-28T01:25:06;14.30;68.50
62581;DHT22;48640;48.770;9.148;2023-05-28T01:27:36;14.60;68.60
62581;DHT22;48640;48.770;9.148;2023-05-28T01:30:05;14.60;67.60
62581;DHT22;48640;48.770;9.148;2023-05-28T01:32:35;14.90;68.10
62581;DHT22;48640;48.770;9.148;2023-05-28T01:35:03;14.80;70.00
62581;DHT22;48640;48.770;9.148;2023-05-28T01:37:31;14.60;71.10
62581;DHT22;48640;48.770;9.148;2023-05-28T01:40:00;14.60;70.80
62581;DHT22;48640;48.770;9.148;2023-05-28T01:42:30;14.50;70.00
62581;DHT22;48640;48.770;9.148;2023-05-28T01:44:58;14.40;69.10
62581;DHT22;48640;48.770;9.148;2023-05-28T01:47:25;14.20;69.00
62581;DHT22;48640;48.770;9.148;2023-05-28T01:49:53;14.50;69.30
62581;DHT22;48640;48.770;9.148;2023-05-28T01:52:19;14.10;68.90
62581;DHT22;48640;48.770;9.148;2023-05-28T01:54:46;14.50;69.80
62581;DHT22;48640;48.770;9.148;2023-05-28T01:57:13;14.10;69.40
62581;DHT22;48640;48.770;9.148;2023-05-28T01:59:41;14.40;70.10
62581;DHT22;48640;48.770;9.148;2023-05-28T02:02:09;13.90;70.60
62581;DHT22;48640;48.770;9.148;2023-05-28T02:04:36;14.40;70.60
62581;DHT22;48640;48.770;9.148;2023-05-28T02:07:03;14.00;69.20
62581;DHT22;48640;48.770;9.148;2023-05-28T02:09:30;14.00;70.10
62581;DHT22;48640;48.770;9.148;2023-05-28T02:11:57;14.10;72.30
62581;DHT22;48640;48.770;9.148;2023-05-28T02:14:28;13.80;72.80
62581;DHT22;48640;48.770;9.148;2023-05-28T02:16:56;14.20;71.60
62581;DHT22;48640;48.770;9.148;2023-05-28T02:19:23;14.00;71.70
62581;DHT22;48640;48.770;9.148;2023-05-28T02:21:50;14.20;71.90
62581;DHT22;48640;48.770;9.148;2023-05-28T02:24:17;14.20;72.00
62581;DHT22;48640;48.770;9.148;2023-05-28T02:26:43;13.90;71.20
62581;DHT22;48640;48.770;9.148;2023-05-28T02:29:11;13.90;71.20
62581;DHT22;48640;48.770;9.148;2023-05-28T02:31:37;13.80;71.10
62581;DHT22;48640;48.770;9.148;2023-05-28T02:34:05;14.10;72.80
62581;DHT22;48640;48.770;9.148;2023-05-28T02:36:32;13.90;71.60
62581;DHT22;48640;48.770;9.148;2023-05-28T02:39:01;14.00;71.40
62581;DHT22;48640;48.770;9.148;2023-05-28T02:41:28;14.00;73.30
62581;DHT22;48640;48.770;9.148;2023-05-28T02:43:55;13.60;72.40
62581;DHT22;48640;48.770;9.148;2023-05-28T02:46:22;13.60;72.00
62581;DHT22;48640;48.770;9.148;2023-05-28T02:48:48;13.70;71.90
62581;DHT22;48640;48.770;9.148;2023-05-28T02:51:17;13.90;72.40
62581;DHT22;48640;48.770;9.148;2023-05-28T02:53:43;13.60;72.10
62581;DHT22;48640;48.770;9.148;2023-05-28T02:56:10;13.60;72.00
62581;DHT22;48640;48.770;9.148;2023-05-28T02:58:37;13.80;71.80
62581;DHT22;48640;48.770;9.148;2023-05-28T03:01:04;13.80;71.90
62581;DHT22;48640;48.770;9.148;2023-05-28T03:03:31;13.50;71.40
62581;DHT22;48640;48.770;9.148;2023-05-28T03:05:58;13.50;70.60
62581;DHT22;48640;48.770;9.148;2023-05-28T03:08:27;13.90;71.10
62581;DHT22;48640;48.770;9.148;2023-05-28T03:10:54;13.60;70.80
62581;DHT22;48640;48.770;9.148;2023-05-28T03:13:21;13.90;71.20
62581;DHT22;48640;48.770;9.148;2023-05-28T03:15:48;13.80;71.40
62581;DHT22;48640;48.770;9.148;2023-05-28T03:18:14;13.40;71.20
62581;DHT22;48640;48.770;9.148;2023-05-28T03:20:41;13.50;71.60
62581;DHT22;48640;48.770;9.148;2023-05-28T03:23:08;13.30;71.60
62581;DHT22;48640;48.770;9.148;2023-05-28T03:25:36;13.60;72.90
62581;DHT22;48640;48.770;9.148;2023-05-28T03:28:03;13.10;72.60
62581;DHT22;48640;48.770;9.148;2023-05-28T03:30:30;13.20;71.90
62581;DHT22;48640;48.770;9.148;2023-05-28T03:32:57;13.70;72.40
62581;DHT22;48640;48.770;9.148;2023-05-28T03:35:24;13.50;73.00
62581;DHT22;48640;48.770;9.148;2023-05-28T03:37:50;13.20;72.60
62581;DHT22;48640;48.770;9.148;2023-05-28T03:40:17;13.50;73.20
62581;DHT22;48640;48.770;9.148;2023-05-28T03:42:45;13.50;72.50
62581;DHT22;48640;48.770;9.148;2023-05-28T03:45:13;13.60;72.60
62581;DHT22;48640;48.770;9.148;2023-05-28T03:47:40;13.30;72.50
62581;DHT22;48640;48.770;9.148;2023-05-28T03:50:08;13.60;72.50
62581;DHT22;48640;48.770;9.148;2023-05-28T03:52:35;13.60;72.00
62581;DHT22;48640;48.770;9.148;2023-05-28T03:55:02;13.60;71.90
62581;DHT22;48640;48.770;9.148;2023-05-28T03:57:29;13.40;71.90
62581;DHT22;48640;48.770;9.148;2023-05-28T03:59:57;13.60;71.90
62581;DHT22;48640;48.770;9.148;2023-05-28T04:02:24;13.30;71.60
62581;DHT22;48640;48.770;9.148;2023-05-28T04:04:51;13.70;72.60
62581;DHT22;48640;48.770;9.148;2023-05-28T04:07:18;13.40;72.70
62581;DHT22;48640;48.770;9.148;2023-05-28T04:09:45;13.60;73.00
62581;DHT22;48640;48.770;9.148;2023-05-28T04:12:12;13.40;72.80
62581;DHT22;48640;48.770;9.148;2023-05-28T04:14:39;13.20;73.80
62581;DHT22;48640;48.770;9.148;2023-05-28T04:17:08;13.30;74.80
62581;DHT22;48640;48.770;9.148;2023-05-28T04:19:36;13.50;75.60
62581;DHT22;48640;48.770;9.148;2023-05-28T04:22:03;13.30;76.00
62581;DHT22;48640;48.770;9.148;2023-05-28T04:24:30;13.40;77.90
62581;DHT22;48640;48.770;9.148;2023-05-28T04:26:57;13.40;77.80
62581;DHT22;48640;48.770;9.148;2023-05-28T04:29:24;13.90;77.60
62581;DHT22;48640;48.770;9.148;2023-05-28T04:31:55;13.50;76.10
62581;DHT22;48640;48.770;9.148;2023-05-28T04:34:24;14.10;76.40
62581;DHT22;48640;48.770;9.148;2023-05-28T04:36:51;13.90;76.30
62581;DHT22;48640;48.770;9.148;2023-05-28T04:39:18;14.00;75.60
62581;DHT22;48640;48.770;9.148;2023-05-28T04:41:46;14.40;76.00
62581;DHT22;48640;48.770;9.148;2023-05-28T04:44:13;14.20;75.10
62581;DHT22;48640;48.770;9.148;2023-05-28T04:46:42;14.60;75.60
62581;DHT22;48640;48.770;9.148;2023-05-28T04:49:09;14.60;74.70
62581;DHT22;48640;48.770;9.148;2023-05-28T04:51:38;14.60;74.50
62581;DHT22;48640;48.770;9.148;2023-05-28T04:54:04;14.80;75.00
62581;DHT22;48640;48.770;9.148;2023-05-28T04:56:31;15.00;73.20
62581;DHT22;48640;48.770;9.148;2023-05-28T04:58:58;15.30;72.10
62581;DHT22;48640;48.770;9.148;2023-05-28T05:01:26;15.60;70.90
62581;DHT22;48640;48.770;9.148;2023-05-28T05:03:53;15.80;69.70
62581;DHT22;48640;48.770;9.148;2023-05-28T05:06:20;15.90;68.50
62581;DHT22;48640;48.770;9.148;2023-05-28T05:08:48;16.30;69.00
62581;DHT22;48640;48.770;9.148;2023-05-28T05:11:15;16.50;68.70
62581;DHT22;48640;48.770;9.148;2023-05-28T05:13:42;16.60;66.80
62581;DHT22;48640;48.770;9.148;2023-05-28T05:16:09;16.80;65.80
62581;DHT22;48640;48.770;9.148;2023-05-28T05:18:36;17.10;64.40
62581;DHT22;48640;48.770;9.148;2023-05-28T05:21:03;17.80;61.40
62581;DHT22;48640;48.770;9.148;2023-05-28T05:23:29;18.30;59.90
62581;DHT22;48640;48.770;9.148;2023-05-28T05:25:58;18.90;57.50
62581;DHT22;48640;48.770;9.148;2023-05-28T05:28:24;19.40;55.20
62581;DHT22;48640;48.770;9.148;2023-05-28T05:30:51;19.90;55.00
62581;DHT22;48640;48.770;9.148;2023-05-28T05:33:18;20.70;54.60
62581;DHT22;48640;48.770;9.148;2023-05-28T05:35:45;20.70;53.20
62581;DHT22;48640;48.770;9.148;2023-05-28T05:38:12;20.80;53.70
62581;DHT22;48640;48.770;9.148;2023-05-28T05:40:38;21.00;52.20
62581;DHT22;48640;48.770;9.148;2023-05-28T05:43:06;20.80;51.50
62581;DHT22;48640;48.770;9.148;2023-05-28T05:45:33;20.70;52.50
62581;DHT22;48640;48.770;9.148;2023-05-28T05:48:00;20.50;51.10
62581;DHT22;48640;48.770;9.148;2023-05-28T05:50:27;20.40;52.40
62581;DHT22;48640;48.770;9.148;2023-05-28T05:52:54;20.60;51.90
62581;DHT22;48640;48.770;9.148;2023-05-28T05:55:21;20.50;52.00
62581;DHT22;48640;48.770;9.148;2023-05-28T05:57:48;19.90;52.80
62581;DHT22;48640;48.770;9.148;2023-05-28T06:00:17;19.90;53.80
62581;DHT22;48640;48.770;9.148;2023-05-28T06:02:43;19.90;52.70
62581;DHT22;48640;48.770;9.148;2023-05-28T06:05:11;19.90;53.30
62581;DHT22;48640;48.770;9.148;2023-05-28T06:07:38;19.30;53.40
62581;DHT22;48640;48.770;9.148;2023-05-28T06:10:06;19.30;54.30
62581;DHT22;48640;48.770;9.148;2023-05-28T06:12:32;19.00;55.00
62581;DHT22;48640;48.770;9.148;2023-05-28T06:14:59;19.30;54.20
62581;DHT22;48640;48.770;9.148;2023-05-28T06:17:28;19.80;52.70
62581;DHT22;48640;48.770;9.148;2023-05-28T06:19:55;20.80;51.90
62581;DHT22;48640;48.770;9.148;2023-05-28T06:22:22;21.30;49.20
62581;DHT22;48640;48.770;9.148;2023-05-28T06:24:49;21.30;47.40
62581;DHT22;48640;48.770;9.148;2023-05-28T06:27:17;20.90;48.20
62581;DHT22;48640;48.770;9.148;2023-05-28T06:29:44;20.50;48.90
62581;DHT22;48640;48.770;9.148;2023-05-28T06:32:12;20.40;49.60
62581;DHT22;48640;48.770;9.148;2023-05-28T06:34:40;20.80;49.30
62581;DHT22;48640;48.770;9.148;2023-05-28T06:37:07;21.10;48.40
62581;DHT22;48640;48.770;9.148;2023-05-28T06:39:34;21.40;50.40
62581;DHT22;48640;48.770;9.148;2023-05-28T06:42:02;21.50;50.10
62581;DHT22;48640;48.770;9.148;2023-05-28T06:44:28;21.80;48.40
62581;DHT22;48640;48.770;9.148;2023-05-28T06:46:55;22.10;47.70
62581;DHT22;48640;48.770;9.148;2023-05-28T06:49:22;22.40;47.80
62581;DHT22;48640;48.770;9.148;2023-05-28T06:51:50;22.40;46.70
62581;DHT22;48640;48.770;9.148;2023-05-28T06:54:17;22.40;47.00
62581;DHT22;48640;48.770;9.148;2023-05-28T06:56:44;22.20;47.50
62581;DHT22;48640;48.770;9.148;2023-05-28T06:59:11;22.10;48.80
62581;DHT22;48640;48.770;9.148;2023-05-28T07:01:38;21.80;49.20
62581;DHT22;48640;48.770;9.148;2023-05-28T07:04:04;21.40;49.40
62581;DHT22;48640;48.770;9.148;2023-05-28T07:06:31;21.40;50.40
62581;DHT22;48640;48.770;9.148;2023-05-28T07:09:00;21.70;48.90
62581;DHT22;48640;48.770;9.148;2023-05-28T07:11:27;22.80;48.50
62581;DHT22;48640;48.770;9.148;2023-05-28T07:13:54;23.40;45.90
62581;DHT22;48640;48.770;9.148;2023-05-28T07:16:21;24.00;44.30
62581;DHT22;48640;48.770;9.148;2023-05-28T07:18:48;24.20;43.90
62581;DHT22;48640;48.770;9.148;2023-05-28T07:21:15;24.40;43.60
62581;DHT22;48640;48.770;9.148;2023-05-28T07:23:42;24.10;43.90
62581;DHT22;48640;48.770;9.148;2023-05-28T07:26:10;24.50;45.50
62581;DHT22;48640;48.770;9.148;2023-05-28T07:28:37;24.90;43.90
62581;DHT22;48640;48.770;9.148;2023-05-28T07:31:04;25.50;41.50
62581;DHT22;48640;48.770;9.148;2023-05-28T07:33:31;25.00;41.60
62581;DHT22;48640;48.770;9.148;2023-05-28T07:35:58;25.10;42.00
62581;DHT22;48640;48.770;9.148;2023-05-28T07:38:25;24.90;42.20
62581;DHT22;48640;48.770;9.148;2023-05-28T07:40:52;25.20;42.50
62581;DHT22;48640;48.770;9.148;2023-05-28T07:43:20;25.50;42.20
62581;DHT22;48640;48.770;9.148;2023-05-28T07:45:47;25.30;42.10
62581;DHT22;48640;48.770;9.148;2023-05-28T07:48:14;25.70;41.40
62581;DHT22;48640;48.770;9.148;2023-05-28T07:50:41;25.80;39.80
62581;DHT22;48640;48.770;9.148;2023-05-28T07:53:08;25.50;40.80
62581;DHT22;48640;48.770;9.148;2023-05-28T07:55:34;25.60;42.00
62581;DHT22;48640;48.770;9.148;2023-05-28T07:58:01;26.20;41.60
62581;DHT22;48640;48.770;9.148;2023-05-28T08:00:30;26.50;39.90
62581;DHT22;48640;48.770;9.148;2023-05-28T08:02:57;27.40;39.20
62581;DHT22;48640;48.770;9.148;2023-05-28T08:05:23;27.50;37.10
62581;DHT22;48640;48.770;9.148;2023-05-28T08:07:50;27.90;37.90
62581;DHT22;48640;48.770;9.148;2023-05-28T08:10:17;28.60;36.10
62581;DHT22;48640;48.770;9.148;2023-05-28T08:12:44;30.00;33.80
62581;DHT22;48640;48.770;9.148;2023-05-28T08:15:11;30.10;32.50
62581;DHT22;48640;48.770;9.148;2023-05-28T08:17:39;29.60;32.50
62581;DHT22;48640;48.770;9.148;2023-05-28T08:20:06;29.60;33.60
62581;DHT22;48640;48.770;9.148;2023-05-28T08:22:35;30.90;31.50
62581;DHT22;48640;48.770;9.148;2023-05-28T08:25:01;31.50;30.60
62581;DHT22;48640;48.770;9.148;2023-05-28T08:27:28;31.70;29.80
62581;DHT22;48640;48.770;9.148;2023-05-28T08:29:55;31.80;29.80
62581;DHT22;48640;48.770;9.148;2023-05-28T08:32:22;30.90;30.10
62581;DHT22;48640;48.770;9.148;2023-05-28T08:34:50;30.50;31.90
62581;DHT22;48640;48.770;9.148;2023-05-28T08:37:17;30.50;30.50
62581;DHT22;48640;48.770;9.148;2023-05-28T08:39:44;30.10;31.10
62581;DHT22;48640;48.770;9.148;2023-05-28T08:42:11;29.90;31.30
62581;DHT22;48640;48.770;9.148;2023-05-28T08:44:38;31.30;29.80
62581;DHT22;48640;48.770;9.148;2023-05-28T08:47:04;31.50;30.50
62581;DHT22;48640;48.770;9.148;2023-05-28T08:49:38;32.50;28.10
62581;DHT22;48640;48.770;9.148;2023-05-28T08:52:09;32.60;28.40
62581;DHT22;48640;48.770;9.148;2023-05-28T08:54:38;32.90;28.20
62581;DHT22;48640;48.770;9.148;2023-05-28T08:57:06;33.80;27.40
62581;DHT22;48640;48.770;9.148;2023-05-28T08:59:33;32.80;27.90
62581;DHT22;48640;48.770;9.148;2023-05-28T09:02:02;34.40;27.70
62581;DHT22;48640;48.770;9.148;2023-05-28T09:04:30;35.70;25.50
62581;DHT22;48640;48.770;9.148;2023-05-28T09:06:56;34.90;26.20
62581;DHT22;48640;48.770;9.148;2023-05-28T09:09:25;33.90;26.80
62581;DHT22;48640;48.770;9.148;2023-05-28T09:11:56;33.30;26.90
62581;DHT22;48640;48.770;9.148;2023-05-28T09:14:23;33.70;27.90
62581;DHT22;48640;48.770;9.148;2023-05-28T09:16:50;34.20;27.50
62581;DHT22;48640;48.770;9.148;2023-05-28T09:19:17;34.90;27.30
62581;DHT22;48640;48.770;9.148;2023-05-28T09:21:54;33.90;25.80
62581;DHT22;48640;48.770;9.148;2023-05-28T09:24:22;33.90;28.00
62581;DHT22;48640;48.770;9.148;2023-05-28T09:26:53;35.30;26.10
62581;DHT22;48640;48.770;9.148;2023-05-28T09:29:21;35.50;26.50
62581;DHT22;48640;48.770;9.148;2023-05-28T09:31:54;36.70;25.40
62581;DHT22;48640;48.770;9.148;2023-05-28T09:34:25;36.10;24.80
62581;DHT22;48640;48.770;9.148;2023-05-28T09:36:54;35.70;25.80
62581;DHT22;48640;48.770;9.148;2023-05-28T09:39:24;35.80;25.60
62581;DHT22;48640;48.770;9.148;2023-05-28T09:41:59;35.00;25.70
62581;DHT22;48640;48.770;9.148;2023-05-28T09:44:30;34.10;27.10
62581;DHT22;48640;48.770;9.148;2023-05-28T09:46:57;34.70;27.20
62581;DHT22;48640;48.770;9.148;2023-05-28T09:49:25;35.30;25.70
62581;DHT22;48640;48.770;9.148;2023-05-28T09:51:53;36.10;25.00
62581;DHT22;48640;48.770;9.148;2023-05-28T09:54:25;36.90;24.80
62581;DHT22;48640;48.770;9.148;2023-05-28T09:56:54;35.60;24.60
62581;DHT22;48640;48.770;9.148;2023-05-28T09:59:26;35.50;24.80
62581;DHT22;48640;48.770;9.148;2023-05-28T10:01:58;35.20;26.10
62581;DHT22;48640;48.770;9.148;2023-05-28T10:04:31;34.60;25.80
62581;DHT22;48640;48.770;9.148;2023-05-28T10:06:59;36.00;24.60
62581;DHT22;48640;48.770;9.148;2023-05-28T10:09:26;36.40;23.80
62581;DHT22;48640;48.770;9.148;2023-05-28T10:12:00;35.90;24.40
62581;DHT22;48640;48.770;9.148;2023-05-28T10:14:31;35.80;24.00
62581;DHT22;48640;48.770;9.148;2023-05-28T10:16:59;34.40;25.60
62581;DHT22;48640;48.770;9.148;2023-05-28T10:19:26;34.70;25.90
62581;DHT22;48640;48.770;9.148;2023-05-28T10:21:54;34.70;25.10
62581;DHT22;48640;48.770;9.148;2023-05-28T10:24:22;33.30;25.20
62581;DHT22;48640;48.770;9.148;2023-05-28T10:26:49;32.90;26.00
62581;DHT22;48640;48.770;9.148;2023-05-28T10:29:17;33.10;27.40
62581;DHT22;48640;48.770;9.148;2023-05-28T10:31:48;33.00;26.40
62581;DHT22;48640;48.770;9.148;2023-05-28T10:34:29;31.50;27.70
62581;DHT22;48640;48.770;9.148;2023-05-28T10:36:56;31.50;28.40
62581;DHT22;48640;48.770;9.148;2023-05-28T10:39:23;32.50;27.50
62581;DHT22;48640;48.770;9.148;2023-05-28T10:41:50;33.50;27.10
62581;DHT22;48640;48.770;9.148;2023-05-28T10:44:20;33.70;27.20
62581;DHT22;48640;48.770;9.148;2023-05-28T10:46:55;33.40;26.90
62581;DHT22;48640;48.770;9.148;2023-05-28T10:49:21;33.80;25.30
62581;DHT22;48640;48.770;9.148;2023-05-28T10:51:56;32.90;25.80
62581;DHT22;48640;48.770;9.148;2023-05-28T10:54:38;32.80;26.90
62581;DHT22;48640;48.770;9.148;2023-05-28T10:57:07;32.60;26.20
62581;DHT22;48640;48.770;9.148;2023-05-28T10:59:39;32.00;27.60
62581;DHT22;48640;48.770;9.148;2023-05-28T11:02:10;32.80;27.90
62581;DHT22;48640;48.770;9.148;2023-05-28T11:04:37;33.40;27.40
62581;DHT22;48640;48.770;9.148;2023-05-28T11:07:05;32.90;28.20
62581;DHT22;48640;48.770;9.148;2023-05-28T11:09:33;32.50;28.00
62581;DHT22;48640;48.770;9.148;2023-05-28T11:12:02;31.90;28.60
62581;DHT22;48640;48.770;9.148;2023-05-28T11:14:33;31.50;29.20
62581;DHT22;48640;48.770;9.148;2023-05-28T11:16:59;31.00;31.20
62581;DHT22;48640;48.770;9.148;2023-05-28T11:19:27;31.50;30.40
62581;DHT22;48640;48.770;9.148;2023-05-28T11:21:55;32.10;29.80
62581;DHT22;48640;48.770;9.148;2023-05-28T11:24:22;32.20;29.80
62581;DHT22;48640;48.770;9.148;2023-05-28T11:26:51;32.40;29.10
62581;DHT22;48640;48.770;9.148;2023-05-28T11:29:19;32.70;26.90
62581;DHT22;48640;48.770;9.148;2023-05-28T11:31:47;32.90;27.20
62581;DHT22;48640;48.770;9.148;2023-05-28T11:34:13;32.90;27.50
62581;DHT22;48640;48.770;9.148;2023-05-28T11:36:43;32.80;28.40
62581;DHT22;48640;48.770;9.148;2023-05-28T11:39:11;32.50;28.20
62581;DHT22;48640;48.770;9.148;2023-05-28T11:41:38;32.30;28.20
62581;DHT22;48640;48.770;9.148;2023-05-28T11:44:18;32.40;28.10
62581;DHT22;48640;48.770;9.148;2023-05-28T11:46:49;32.70;27.90
62581;DHT22;48640;48.770;9.148;2023-05-28T11:49:16;32.00;28.10
62581;DHT22;48640;48.770;9.148;2023-05-28T11:51:44;31.50;28.70
62581;DHT22;48640;48.770;9.148;2023-05-28T11:54:11;30.80;29.50
62581;DHT22;48640;48.770;9.148;2023-05-28T11:56:38;30.10;29.70
62581;DHT22;48640;48.770;9.148;2023-05-28T11:59:05;29.40;30.40
62581;DHT22;48640;48.770;9.148;2023-05-28T12:01:32;29.60;31.40
62581;DHT22;48640;48.770;9.148;2023-05-28T12:04:04;30.00;31.90
62581;DHT22;48640;48.770;9.148;2023-05-28T12:06:31;30.40;30.50
62581;DHT22;48640;48.770;9.148;2023-05-28T12:09:04;30.20;29.80
62581;DHT22;48640;48.770;9.148;2023-05-28T12:11:32;30.40;29.70
62581;DHT22;48640;48.770;9.148;2023-05-28T12:14:08;30.60;29.30
62581;DHT22;48640;48.770;9.148;2023-05-28T12:16:42;30.40;30.60
62581;DHT22;48640;48.770;9.148;2023-05-28T12:19:12;30.20;31.20
62581;DHT22;48640;48.770;9.148;2023-05-28T12:21:40;30.00;28.40
62581;DHT22;48640;48.770;9.148;2023-05-28T12:24:14;29.90;29.10
62581;DHT22;48640;48.770;9.148;2023-05-28T12:26:41;29.60;29.30
62581;DHT22;48640;48.770;9.148;2023-05-28T12:29:08;29.10;30.70
62581;DHT22;48640;48.770;9.148;2023-05-28T12:31:35;29.10;30.40
62581;DHT22;48640;48.770;9.148;2023-05-28T12:34:02;29.00;29.90
62581;DHT22;48640;48.770;9.148;2023-05-28T12:36:28;29.00;30.00
62581;DHT22;48640;48.770;9.148;2023-05-28T12:38:55;28.80;31.00
62581;DHT22;48640;48.770;9.148;2023-05-28T12:41:24;28.80;31.40
62581;DHT22;48640;48.770;9.148;2023-05-28T12:43:50;28.50;31.10
62581;DHT22;48640;48.770;9.148;2023-05-28T12:46:17;28.20;31.80
62581;DHT22;48640;48.770;9.148;2023-05-28T12:48:44;27.90;32.80
62581;DHT22;48640;48.770;9.148;2023-05-28T12:51:11;28.20;32.60
62581;DHT22;48640;48.770;9.148;2023-05-28T12:53:38;28.40;33.30
62581;DHT22;48640;48.770;9.148;2023-05-28T12:56:05;28.50;32.80
62581;DHT22;48640;48.770;9.148;2023-05-28T12:58:33;28.50;31.20
62581;DHT22;48640;48.770;9.148;2023-05-28T13:01:00;28.10;32.10
62581;DHT22;48640;48.770;9.148;2023-05-28T13:03:27;28.10;31.90
62581;DHT22;48640;48.770;9.148;2023-05-28T13:05:54;28.20;32.20
62581;DHT22;48640;48.770;9.148;2023-05-28T13:08:20;28.40;32.80
62581;DHT22;48640;48.770;9.148;2023-05-28T13:10:47;28.50;31.90
62581;DHT22;48640;48.770;9.148;2023-05-28T13:13:14;28.50;31.90
62581;DHT22;48640;48.770;9.148;2023-05-28T13:15:42;28.40;32.60
62581;DHT22;48640;48.770;9.148;2023-05-28T13:18:10;28.00;31.20
62581;DHT22;48640;48.770;9.148;2023-05-28T13:20:37;27.40;32.20
62581;DHT22;48640;48.770;9.148;2023-05-28T13:23:04;27.10;31.90
62581;DHT22;48640;48.770;9.148;2023-05-28T13:25:31;26.90;34.00
62581;DHT22;48640;48.770;9.148;2023-05-28T13:31:04;27.30;33.50
62581;DHT22;48640;48.770;9.148;2023-05-28T13:33:31;27.40;31.80
62581;DHT22;48640;48.770;9.148;2023-05-28T13:35:58;27.10;33.00
62581;DHT22;48640;48.770;9.148;2023-05-28T13:38:24;27.00;32.20
62581;DHT22;48640;48.770;9.148;2023-05-28T13:40:52;26.50;32.00
62581;DHT22;48640;48.770;9.148;2023-05-28T13:43:19;26.40;33.60
62581;DHT22;48640;48.770;9.148;2023-05-28T13:45:46;26.40;32.90
62581;DHT22;48640;48.770;9.148;2023-05-28T13:48:16;26.40;33.90
62581;DHT22;48640;48.770;9.148;2023-05-28T13:50:43;26.30;33.10
62581;DHT22;48640;48.770;9.148;2023-05-28T13:53:10;26.20;34.00
62581;DHT22;48640;48.770;9.148;2023-05-28T13:55:37;26.10;33.40
62581;DHT22;48640;48.770;9.148;2023-05-28T13:58:03;26.20;33.70
62581;DHT22;48640;48.770;9.148;2023-05-28T14:00:30;26.30;33.60
62581;DHT22;48640;48.770;9.148;2023-05-28T14:02:57;26.40;33.30
62581;DHT22;48640;48.770;9.148;2023-05-28T14:05:25;26.50;33.20
62581;DHT22;48640;48.770;9.148;2023-05-28T14:07:52;26.60;33.30
62581;DHT22;48640;48.770;9.148;2023-05-28T14:10:19;26.70;33.30
62581;DHT22;48640;48.770;9.148;2023-05-28T14:12:50;26.60;32.60
62581;DHT22;48640;48.770;9.148;2023-05-28T14:15:17;26.50;31.50
62581;DHT22;48640;48.770;9.148;2023-05-28T14:17:44;26.40;32.30
62581;DHT22;48640;48.770;9.148;2023-05-28T14:20:11;26.20;32.40
62581;DHT22;48640;48.770;9.148;2023-05-28T14:22:39;26.10;33.10
62581;DHT22;48640;48.770;9.148;2023-05-28T14:25:08;26.10;33.20
62581;DHT22;48640;48.770;9.148;2023-05-28T14:27:35;26.10;32.80
62581;DHT22;48640;48.770;9.148;2023-05-28T14:30:01;25.90;32.20
62581;DHT22;48640;48.770;9.148;2023-05-28T14:32:28;25.80;32.80
62581;DHT22;48640;48.770;9.148;2023-05-28T14:34:57;25.80;33.40
62581;DHT22;48640;48.770;9.148;2023-05-28T14:37:24;25.70;34.00
62581;DHT22;48640;48.770;9.148;2023-05-28T14:39:52;25.80;33.20
62581;DHT22;48640;48.770;9.148;2023-05-28T14:42:19;25.70;33.90
62581;DHT22;48640;48.770;9.148;2023-05-28T14:44:45;25.70;34.20
62581;DHT22;48640;48.770;9.148;2023-05-28T14:47:12;25.70;33.70
62581;DHT22;48640;48.770;9.148;2023-05-28T14:49:39;25.60;34.30
62581;DHT22;48640;48.770;9.148;2023-05-28T14:52:22;25.60;34.50
62581;DHT22;48640;48.770;9.148;2023-05-28T14:55:19;25.70;34.10
62581;DHT22;48640;48.770;9.148;2023-05-28T14:57:46;25.60;34.80
62581;DHT22;48640;48.770;9.148;2023-05-28T15:00:14;25.50;34.20
62581;DHT22;48640;48.770;9.148;2023-05-28T15:02:54;25.50;34.90
62581;DHT22;48640;48.770;9.148;2023-05-28T15:05:21;25.50;34.00
62581;DHT22;48640;48.770;9.148;2023-05-28T15:07:53;25.40;34.30
62581;DHT22;48640;48.770;9.148;2023-05-28T15:10:22;25.40;34.60
62581;DHT22;48640;48.770;9.148;2023-05-28T15:12:48;25.30;35.60
62581;DHT22;48640;48.770;9.148;2023-05-28T15:15:15;25.30;35.00
62581;DHT22;48640;48.770;9.148;2023-05-28T15:17:42;25.30;35.20
62581;DHT22;48640;48.770;9.148;2023-05-28T15:20:12;25.20;35.40
62581;DHT22;48640;48.770;9.148;2023-05-28T15:22:45;25.10;36.00
62581;DHT22;48640;48.770;9.148;2023-05-28T15:25:15;25.20;35.80
62581;DHT22;48640;48.770;9.148;2023-05-28T15:27:48;25.20;36.00
62581;DHT22;48640;48.770;9.148;2023-05-28T15:30:24;25.20;36.50
62581;DHT22;48640;48.770;9.148;2023-05-28T15:32:54;25.30;35.60
62581;DHT22;48640;48.770;9.148;2023-05-28T15:35:30;25.30;34.90
62581;DHT22;48640;48.770;9.148;2023-05-28T15:38:01;25.20;34.70